Time;durP1;ratioP1;P1;durP2;ratioP2;P2;SDS_P1;SDS_P2;PMS_P1;PMS_P2;Temp;Humidity;BMP_temperature;BMP_pressure;BME280_temperature;BME280_humidity;BME280_pressure;Samples;Min_cycle;Max_cycle;Signal;HPM_P1;HPM_P2
2023/02/10 00:08:17;;;;;;;0.20;0.10;;;6.80;99.90;;;;;;21139846;28;20398;-65
2023/02/10 00:18:22;;;;;;;0.20;0.10;;;7.00;99.90;;;;;;21157410;28;20410;-65
2023/02/10 00:28:26;;;;;;;0.20;0.10;;;7.00;99.90;;;;;;21156336;28;20437;-64
2023/02/10 00:38:31;;;;;;;0.20;0.10;;;7.00;99.90;;;;;;21156631;28;20434;-65
2023/02/10 00:48:35;;;;;;;0.20;0.10;;;6.90;99.90;;;;;;21155500;28;20794;-64
2023/02/10 00:58:40;;;;;;;0.20;0.10;;;7.00;99.90;;;;;;21135548;28;20483;-64
2023/02/10 01:08:44;;;;;;;0.20;0.10;;;7.00;99.90;;;;;;21135325;28;20945;-64
2023/02/10 01:18:49;;;;;;;0.20;0.10;;;7.00;99.90;;;;;;21117471;28;20411;-64
2023/02/10 01:28:53;;;;;;;0.20;0.10;;;7.00;99.90;;;;;;21133162;28;20900;-65
2023/02/10 01:38:59;;;;;;;0.20;0.10;;;6.90;99.90;;;;;;21132477;28;20398;-66
2023/02/10 01:49:07;;;;;;;0.20;0.10;;;6.80;99.90;;;;;;21149442;28;20502;-65
2023/02/10 01:59:14;;;;;;;0.20;0.10;;;6.60;99.90;;;;;;21149565;28;20455;-65
2023/02/10 02:09:18;;;;;;;0.20;0.10;;;6.70;99.90;;;;;;21148057;28;20448;-65
2023/02/10 02:19:49;;;;;;;0.20;0.10;;;6.80;99.90;;;;;;21129402;28;20415;-65
2023/02/10 02:30:12;;;;;;;0.20;0.10;;;7.00;99.90;;;;;;21127254;28;20424;-64
2023/02/10 02:40:18;;;;;;;0.20;0.10;;;7.00;99.90;;;;;;21128176;28;20406;-65
2023/02/10 02:50:28;;;;;;;0.20;0.10;;;6.90;99.90;;;;;;21127067;28;20394;-65
2023/02/10 03:00:35;;;;;;;0.20;0.10;;;6.80;99.90;;;;;;21127293;28;20896;-64
2023/02/10 03:10:39;;;;;;;0.20;0.10;;;6.80;99.90;;;;;;21145383;28;20409;-66
2023/02/10 03:20:44;;;;;;;0.20;0.10;;;6.70;99.90;;;;;;21137712;28;20407;-65
2023/02/10 03:30:48;;;;;;;0.20;0.10;;;6.60;99.90;;;;;;21161262;28;20394;-64
2023/02/10 03:40:54;;;;;;;0.20;0.10;;;6.60;99.90;;;;;;21142295;28;20471;-65
2023/02/10 03:50:58;;;;;;;0.20;0.10;;;6.40;99.90;;;;;;21156598;28;20872;-64
2023/02/10 04:01:11;;;;;;;0.20;0.10;;;6.40;99.90;;;;;;21158810;28;20417;-65
2023/02/10 04:11:15;;;;;;;0.20;0.10;;;6.20;99.90;;;;;;21158371;28;20414;-64
2023/02/10 04:21:20;;;;;;;0.20;0.10;;;6.10;99.90;;;;;;21155836;28;20452;-64
2023/02/10 04:31:24;;;;;;;0.20;0.10;;;6.10;99.90;;;;;;21136960;28;20406;-65
2023/02/10 04:41:30;;;;;;;0.20;0.10;;;6.20;99.90;;;;;;21137793;28;20407;-65
2023/02/10 04:51:33;;;;;;;0.20;0.10;;;6.20;99.90;;;;;;21136683;28;20402;-65
2023/02/10 05:01:39;;;;;;;0.20;0.10;;;5.90;99.90;;;;;;21135239;28;20413;-64
2023/02/10 05:11:43;;;;;;;0.20;0.10;;;6.10;99.90;;;;;;21134844;28;20916;-65
2023/02/10 05:21:49;;;;;;;0.20;0.10;;;5.80;99.90;;;;;;21152314;28;20450;-65
2023/02/10 05:31:52;;;;;;;0.20;0.10;;;5.70;99.90;;;;;;21147491;28;20436;-65
2023/02/10 05:41:59;;;;;;;0.20;0.10;;;5.60;99.90;;;;;;21148994;28;20517;-64
2023/02/10 05:52:02;;;;;;;0.20;0.10;;;5.80;99.90;;;;;;21149098;28;20555;-65
2023/02/10 06:02:08;;;;;;;0.20;0.10;;;5.80;99.90;;;;;;21149458;28;20928;-65
2023/02/10 06:12:11;;;;;;;0.20;0.10;;;5.60;99.90;;;;;;21147623;28;20845;-65
2023/02/10 06:22:17;;;;;;;0.20;0.10;;;5.50;99.90;;;;;;21127900;28;20777;-64
2023/02/10 06:32:20;;;;;;;0.20;0.10;;;5.40;99.90;;;;;;21146425;28;20451;-64
2023/02/10 06:42:26;;;;;;;0.20;0.10;;;5.40;99.90;;;;;;21126362;28;20816;-64
2023/02/10 06:52:31;;;;;;;0.20;0.10;;;5.50;99.90;;;;;;21142014;28;20404;-64
2023/02/10 07:02:37;;;;;;;0.20;0.10;;;5.50;99.90;;;;;;21121653;28;20784;-65
2023/02/10 07:12:41;;;;;;;0.20;0.10;;;5.60;99.90;;;;;;21141703;28;20405;-65
2023/02/10 07:22:46;;;;;;;0.20;0.10;;;5.60;99.90;;;;;;21143415;28;20410;-65
2023/02/10 07:32:50;;;;;;;0.20;0.10;;;5.60;99.90;;;;;;21143070;28;20455;-65
2023/02/10 07:42:56;;;;;;;0.20;0.10;;;6.20;99.90;;;;;;21123338;28;20478;-65
2023/02/10 07:53:00;;;;;;;0.20;0.10;;;6.50;99.90;;;;;;21141400;28;20415;-66
2023/02/10 08:03:05;;;;;;;0.20;0.10;;;7.00;99.90;;;;;;21141699;28;20406;-63
2023/02/10 08:13:09;;;;;;;0.20;0.10;;;7.20;99.90;;;;;;21120841;28;20395;-64
2023/02/10 08:23:16;;;;;;;0.20;0.10;;;7.40;99.90;;;;;;21134032;28;20426;-63
2023/02/10 08:33:20;;;;;;;0.20;0.10;;;7.40;99.90;;;;;;21153590;28;20409;-66
2023/02/10 08:43:25;;;;;;;0.20;0.10;;;7.50;99.90;;;;;;21152488;28;20410;-65
2023/02/10 08:53:30;;;;;;;0.20;0.10;;;8.00;99.90;;;;;;21147259;28;20415;-66
2023/02/10 09:03:36;;;;;;;0.20;0.07;;;8.40;99.90;;;;;;21108990;28;20480;-67
2023/02/10 09:13:40;;;;;;;0.20;0.10;;;9.00;99.90;;;;;;21128747;28;20889;-63
2023/02/10 09:23:45;;;;;;;0.20;0.10;;;9.60;99.90;;;;;;21147621;28;20471;-65
2023/02/10 09:33:49;;;;;;;0.20;0.00;;;10.40;99.90;;;;;;21129342;28;20399;-65
2023/02/10 09:44:10;;;;;;;0.20;0.10;;;10.70;99.90;;;;;;21077686;28;20414;-64
2023/02/10 09:54:16;;;;;;;0.20;0.10;;;10.80;99.90;;;;;;21058759;28;20403;-64
2023/02/10 10:04:24;;;;;;;0.20;0.10;;;11.00;99.90;;;;;;21059530;28;20419;-65
2023/02/10 10:14:29;;;;;;;0.20;0.10;;;11.20;99.90;;;;;;21058198;28;20495;-64
2023/02/10 10:24:49;;;;;;;0.20;0.10;;;11.50;99.90;;;;;;21083451;28;20403;-64
2023/02/10 10:34:54;;;;;;;0.20;0.10;;;11.90;99.90;;;;;;21123420;28;20394;-65
2023/02/10 10:45:06;;;;;;;0.20;0.10;;;12.40;99.90;;;;;;21140702;28;20533;-65
2023/02/10 10:55:16;;;;;;;0.20;0.20;;;12.70;99.90;;;;;;21142125;28;20901;-66
2023/02/10 11:05:23;;;;;;;0.20;0.10;;;13.00;99.90;;;;;;21142794;28;20471;-66
2023/02/10 11:15:38;;;;;;;0.20;0.10;;;13.80;99.90;;;;;;21125594;28;20390;-66
2023/02/10 11:25:48;;;;;;;0.20;0.10;;;14.40;99.90;;;;;;21124246;28;20401;-66
2023/02/10 11:35:56;;;;;;;0.20;0.00;;;14.80;99.90;;;;;;21106599;28;20413;-65
2023/02/10 11:46:04;;;;;;;0.20;0.10;;;15.10;99.90;;;;;;21136340;27;20399;-65
2023/02/10 11:56:17;;;;;;;0.20;0.10;;;15.30;99.90;;;;;;21118103;28;20394;-65
2023/02/10 12:06:30;;;;;;;0.20;0.00;;;15.60;99.90;;;;;;21149683;28;20399;-64
2023/02/10 12:16:49;;;;;;;0.20;0.10;;;15.80;99.90;;;;;;21124576;28;20535;-65
2023/02/10 12:26:58;;;;;;;0.20;0.10;;;16.00;99.90;;;;;;21144468;28;20988;-66
2023/02/10 12:37:12;;;;;;;0.20;0.10;;;16.40;99.90;;;;;;21115597;28;20397;-66
2023/02/10 12:47:30;;;;;;;0.20;0.10;;;17.00;99.90;;;;;;21150064;28;20770;-64
2023/02/10 12:57:42;;;;;;;0.20;0.10;;;17.10;99.90;;;;;;21151241;28;20800;-65
2023/02/10 13:07:51;;;;;;;0.20;0.10;;;17.00;99.90;;;;;;21130033;28;20402;-66
2023/02/10 13:17:56;;;;;;;0.20;0.10;;;17.20;99.90;;;;;;21146189;28;20402;-64
2023/02/10 13:28:12;;;;;;;0.20;0.10;;;17.60;99.90;;;;;;21132623;28;20425;-66
2023/02/10 13:38:19;;;;;;;0.20;0.10;;;17.40;99.90;;;;;;21139334;28;20426;-64
2023/02/10 13:48:29;;;;;;;0.20;0.10;;;17.40;99.90;;;;;;21104172;28;20391;-67
2023/02/10 13:58:35;;;;;;;0.20;0.10;;;17.70;99.90;;;;;;21126883;28;20935;-65
2023/02/10 14:08:42;;;;;;;0.20;0.10;;;18.80;99.90;;;;;;21144393;28;20406;-66
2023/02/10 14:19:05;;;;;;;0.20;0.10;;;18.90;99.90;;;;;;21079829;28;20473;-67
2023/02/10 14:29:14;;;;;;;0.20;0.00;;;18.80;99.90;;;;;;21059377;28;20400;-63
2023/02/10 14:39:22;;;;;;;0.20;0.05;;;18.60;99.90;;;;;;21024040;28;20473;-65
2023/02/10 14:49:29;;;;;;;0.20;0.10;;;19.10;99.90;;;;;;21121999;28;20409;-65
2023/02/10 14:59:36;;;;;;;0.20;0.07;;;19.30;99.90;;;;;;21140744;28;20435;-65
2023/02/10 15:09:41;;;;;;;0.20;0.10;;;19.00;99.90;;;;;;21122058;28;20403;-65
2023/02/10 15:19:57;;;;;;;0.20;0.08;;;19.50;99.90;;;;;;21123825;28;20415;-64
2023/02/10 15:30:08;;;;;;;0.20;0.10;;;18.30;99.90;;;;;;21157617;28;20413;-68
2023/02/10 15:40:19;;;;;;;0.20;0.10;;;18.10;99.90;;;;;;21149849;28;20471;-66
2023/02/10 15:50:24;;;;;;;0.20;0.10;;;16.80;99.90;;;;;;21148031;28;20417;-64
2023/02/10 16:00:31;;;;;;;0.20;0.10;;;15.70;99.90;;;;;;21137161;28;20409;-67
2023/02/10 16:10:36;;;;;;;0.20;0.10;;;15.40;99.90;;;;;;21136060;28;20959;-65
2023/02/10 16:20:41;;;;;;;0.20;0.10;;;15.60;99.90;;;;;;21092043;28;20473;-65
2023/02/10 16:30:46;;;;;;;0.20;0.10;;;14.70;99.90;;;;;;21066438;28;20825;-67
2023/02/10 16:40:51;;;;;;;0.20;0.10;;;13.40;99.90;;;;;;21048927;28;20465;-66
2023/02/10 16:50:56;;;;;;;0.20;0.10;;;12.60;99.90;;;;;;21057931;27;20402;-65
2023/02/10 17:01:00;;;;;;;0.20;0.10;;;12.30;99.90;;;;;;21131158;28;20807;-64
2023/02/10 17:11:05;;;;;;;0.20;0.10;;;11.70;99.90;;;;;;21081331;28;20403;-63
2023/02/10 17:21:09;;;;;;;0.20;0.10;;;11.60;99.90;;;;;;21050619;28;20511;-65
2023/02/10 17:31:17;;;;;;;0.20;0.10;;;11.40;99.90;;;;;;21061548;28;20450;-63
2023/02/10 17:41:23;;;;;;;0.20;0.10;;;11.30;99.90;;;;;;21060905;28;20415;-66
2023/02/10 17:51:28;;;;;;;0.20;0.10;;;11.20;99.90;;;;;;21117439;28;20402;-67
2023/02/10 18:01:32;;;;;;;0.20;0.10;;;11.10;99.90;;;;;;21144777;28;20489;-66
2023/02/10 18:11:38;;;;;;;0.20;0.00;;;10.10;99.90;;;;;;21087449;27;20511;-65
2023/02/10 18:21:42;;;;;;;0.20;0.10;;;9.70;99.90;;;;;;21113337;28;21142;-65
2023/02/10 18:31:48;;;;;;;0.20;0.10;;;9.20;99.90;;;;;;21142879;28;21081;-66
2023/02/10 18:41:52;;;;;;;0.20;0.10;;;9.00;99.90;;;;;;21123543;28;20421;-65
2023/02/10 18:51:57;;;;;;;0.20;0.10;;;8.80;99.90;;;;;;21105335;28;20391;-64
2023/02/10 19:02:01;;;;;;;0.20;0.10;;;8.50;99.90;;;;;;21140853;28;20418;-65
2023/02/10 19:12:08;;;;;;;0.20;0.10;;;8.40;99.90;;;;;;21116752;28;20394;-65
2023/02/10 19:22:11;;;;;;;0.20;0.10;;;8.30;99.90;;;;;;21056497;28;20420;-64
2023/02/10 19:32:17;;;;;;;0.20;0.10;;;7.80;99.90;;;;;;21102304;28;20406;-65
2023/02/10 19:42:21;;;;;;;0.20;0.03;;;7.80;99.90;;;;;;21121382;28;20757;-64
2023/02/10 19:52:27;;;;;;;0.20;0.10;;;7.80;99.90;;;;;;21137895;28;20395;-65
2023/02/10 20:02:30;;;;;;;0.20;0.10;;;7.50;99.90;;;;;;21148099;28;20497;-63
2023/02/10 20:12:36;;;;;;;0.20;0.10;;;7.20;99.90;;;;;;21075068;28;20408;-65
2023/02/10 20:22:40;;;;;;;0.20;0.10;;;7.50;99.90;;;;;;21085503;28;20418;-66
2023/02/10 20:32:45;;;;;;;0.20;0.00;;;7.30;99.90;;;;;;21131809;28;20573;-67
2023/02/10 20:42:51;;;;;;;0.20;0.03;;;7.00;99.90;;;;;;21149591;28;20407;-66
2023/02/10 20:53:00;;;;;;;0.20;0.10;;;6.90;99.90;;;;;;21130753;28;20769;-65
2023/02/10 21:03:04;;;;;;;0.20;0.10;;;7.00;99.90;;;;;;21148122;28;20795;-66
2023/02/10 21:13:09;;;;;;;0.20;0.10;;;7.40;99.90;;;;;;21129098;28;20399;-66
2023/02/10 21:23:13;;;;;;;0.20;0.10;;;7.70;99.90;;;;;;21147788;28;20403;-66
2023/02/10 21:33:21;;;;;;;0.20;0.10;;;7.80;99.90;;;;;;21146939;28;20411;-67
2023/02/10 21:43:25;;;;;;;0.20;0.10;;;7.80;99.90;;;;;;21127488;28;20434;-67
2023/02/10 21:53:30;;;;;;;0.20;0.10;;;7.90;99.90;;;;;;21145341;28;20471;-65
2023/02/10 22:03:36;;;;;;;0.20;0.10;;;7.70;99.90;;;;;;21126528;28;20446;-67
2023/02/10 22:13:42;;;;;;;0.20;0.10;;;7.50;99.90;;;;;;21143165;28;20398;-68
2023/02/10 22:23:46;;;;;;;0.20;0.10;;;7.50;99.90;;;;;;21142248;28;20405;-68
2023/02/10 22:33:53;;;;;;;0.20;0.10;;;7.50;99.90;;;;;;21142379;28;20399;-66
2023/02/10 22:43:58;;;;;;;0.20;0.10;;;7.40;99.90;;;;;;21136106;28;20773;-67
2023/02/10 22:54:05;;;;;;;0.20;0.10;;;7.30;99.90;;;;;;21142549;28;20471;-66
2023/02/10 23:04:11;;;;;;;0.20;0.10;;;7.30;99.90;;;;;;21123512;28;20430;-67
2023/02/10 23:14:16;;;;;;;0.20;0.00;;;7.30;99.90;;;;;;21122330;28;20394;-67
2023/02/10 23:24:20;;;;;;;0.20;0.10;;;7.20;99.90;;;;;;21122359;28;20498;-67
2023/02/10 23:34:25;;;;;;;0.20;0.10;;;7.10;99.90;;;;;;21145847;28;20403;-66
2023/02/10 23:44:29;;;;;;;0.20;0.10;;;7.10;99.90;;;;;;21141219;28;20402;-66
2023/02/10 23:54:35;;;;;;;0.20;0.10;;;7.00;99.90;;;;;;21142027;28;20402;-66
